sensor_id;sensor_type;location;lat;lon;timestamp;P1;P2;P0
79537;PMS5003;68989;52.032;5.152;2023-04-25T00:01:33;5;5;
79537;PMS5003;68989;52.032;5.152;2023-04-25T00:04:00;5;4;
79537;PMS5003;68989;52.032;5.152;2023-04-25T00:06:27;4;4;
79537;PMS5003;68989;52.032;5.152;2023-04-25T00:08:54;5;4;
79537;PMS5003;68989;52.032;5.152;2023-04-25T00:11:21;4;3;
79537;PMS5003;68989;52.032;5.152;2023-04-25T00:13:48;6;5;
79537;PMS5003;68989;52.032;5.152;2023-04-25T00:16:14;7;6;
79537;PMS5003;68989;52.032;5.152;2023-04-25T00:18:41;8;7;
79537;PMS5003;68989;52.032;5.152;2023-04-25T00:21:09;6;6;
79537;PMS5003;68989;52.032;5.152;2023-04-25T00:23:37;8;7;
79537;PMS5003;68989;52.032;5.152;2023-04-25T00:26:04;11;7;
79537;PMS5003;68989;52.032;5.152;2023-04-25T00:28:31;7;6;
79537;PMS5003;68989;52.032;5.152;2023-04-25T00:30:57;7;6;
79537;PMS5003;68989;52.032;5.152;2023-04-25T00:33:24;8;7;
79537;PMS5003;68989;52.032;5.152;2023-04-25T00:35:51;9;7;
79537;PMS5003;68989;52.032;5.152;2023-04-25T00:38:18;6;6;
79537;PMS5003;68989;52.032;5.152;2023-04-25T00:40:45;7;6;
79537;PMS5003;68989;52.032;5.152;2023-04-25T00:43:12;9;6;
79537;PMS5003;68989;52.032;5.152;2023-04-25T00:45:40;5;5;
79537;PMS5003;68989;52.032;5.152;2023-04-25T00:48:09;5;5;
79537;PMS5003;68989;52.032;5.152;2023-04-25T00:50:37;6;6;
79537;PMS5003;68989;52.032;5.152;2023-04-25T00:53:04;6;5;
79537;PMS5003;68989;52.032;5.152;2023-04-25T00:55:31;4;4;
79537;PMS5003;68989;52.032;5.152;2023-04-25T00:57:58;4;4;
79537;PMS5003;68989;52.032;5.152;2023-04-25T01:01:44;7;5;
79537;PMS5003;68989;52.032;5.152;2023-04-25T01:04:12;6;6;
79537;PMS5003;68989;52.032;5.152;2023-04-25T01:06:39;5;5;
79537;PMS5003;68989;52.032;5.152;2023-04-25T01:09:07;5;5;
79537;PMS5003;68989;52.032;5.152;2023-04-25T01:11:34;8;7;
79537;PMS5003;68989;52.032;5.152;2023-04-25T01:14:01;6;5;
79537;PMS5003;68989;52.032;5.152;2023-04-25T01:16:28;6;5;
79537;PMS5003;68989;52.032;5.152;2023-04-25T01:18:56;5;5;
79537;PMS5003;68989;52.032;5.152;2023-04-25T01:21:23;6;6;
79537;PMS5003;68989;52.032;5.152;2023-04-25T01:23:50;6;5;
79537;PMS5003;68989;52.032;5.152;2023-04-25T01:26:18;6;5;
79537;PMS5003;68989;52.032;5.152;2023-04-25T01:28:45;8;7;
79537;PMS5003;68989;52.032;5.152;2023-04-25T01:31:12;5;5;
79537;PMS5003;68989;52.032;5.152;2023-04-25T01:33:40;6;6;
79537;PMS5003;68989;52.032;5.152;2023-04-25T01:36:07;6;5;
79537;PMS5003;68989;52.032;5.152;2023-04-25T01:38:35;7;6;
79537;PMS5003;68989;52.032;5.152;2023-04-25T01:41:01;4;4;
79537;PMS5003;68989;52.032;5.152;2023-04-25T01:43:28;5;5;
79537;PMS5003;68989;52.032;5.152;2023-04-25T01:45:55;4;4;
79537;PMS5003;68989;52.032;5.152;2023-04-25T01:48:23;6;5;
79537;PMS5003;68989;52.032;5.152;2023-04-25T01:50:50;5;5;
79537;PMS5003;68989;52.032;5.152;2023-04-25T01:53:17;5;4;
79537;PMS5003;68989;52.032;5.152;2023-04-25T01:55:44;6;6;
79537;PMS5003;68989;52.032;5.152;2023-04-25T01:58:11;8;5;
79537;PMS5003;68989;52.032;5.152;2023-04-25T02:00:38;6;4;
79537;PMS5003;68989;52.032;5.152;2023-04-25T02:03:06;5;5;
79537;PMS5003;68989;52.032;5.152;2023-04-25T02:05:34;7;7;
79537;PMS5003;68989;52.032;5.152;2023-04-25T02:08:02;7;6;
79537;PMS5003;68989;52.032;5.152;2023-04-25T02:10:29;7;7;
79537;PMS5003;68989;52.032;5.152;2023-04-25T02:12:56;7;7;
79537;PMS5003;68989;52.032;5.152;2023-04-25T02:15:23;6;5;
79537;PMS5003;68989;52.032;5.152;2023-04-25T02:17:50;5;5;
79537;PMS5003;68989;52.032;5.152;2023-04-25T02:20:17;4;4;
79537;PMS5003;68989;52.032;5.152;2023-04-25T02:22:44;4;4;
79537;PMS5003;68989;52.032;5.152;2023-04-25T02:25:11;5;5;
79537;PMS5003;68989;52.032;5.152;2023-04-25T02:27:39;5;4;
79537;PMS5003;68989;52.032;5.152;2023-04-25T02:30:06;5;5;
79537;PMS5003;68989;52.032;5.152;2023-04-25T02:32:34;5;5;
79537;PMS5003;68989;52.032;5.152;2023-04-25T02:35:01;6;6;
79537;PMS5003;68989;52.032;5.152;2023-04-25T02:37:29;8;7;
79537;PMS5003;68989;52.032;5.152;2023-04-25T02:39:56;6;5;
79537;PMS5003;68989;52.032;5.152;2023-04-25T02:42:23;5;5;
79537;PMS5003;68989;52.032;5.152;2023-04-25T02:44:50;4;4;
79537;PMS5003;68989;52.032;5.152;2023-04-25T02:47:17;6;6;
79537;PMS5003;68989;52.032;5.152;2023-04-25T02:49:44;4;4;
79537;PMS5003;68989;52.032;5.152;2023-04-25T02:52:11;5;5;
79537;PMS5003;68989;52.032;5.152;2023-04-25T02:54:38;6;6;
79537;PMS5003;68989;52.032;5.152;2023-04-25T02:57:06;5;5;
79537;PMS5003;68989;52.032;5.152;2023-04-25T02:59:33;6;5;
79537;PMS5003;68989;52.032;5.152;2023-04-25T03:02:00;4;4;
79537;PMS5003;68989;52.032;5.152;2023-04-25T03:04:28;5;5;
79537;PMS5003;68989;52.032;5.152;2023-04-25T03:06:54;9;8;
79537;PMS5003;68989;52.032;5.152;2023-04-25T03:09:21;4;4;
79537;PMS5003;68989;52.032;5.152;2023-04-25T03:11:48;6;6;
79537;PMS5003;68989;52.032;5.152;2023-04-25T03:14:15;5;5;
79537;PMS5003;68989;52.032;5.152;2023-04-25T03:16:42;6;6;
79537;PMS5003;68989;52.032;5.152;2023-04-25T03:19:09;7;7;
79537;PMS5003;68989;52.032;5.152;2023-04-25T03:21:36;4;4;
79537;PMS5003;68989;52.032;5.152;2023-04-25T03:24:03;5;5;
79537;PMS5003;68989;52.032;5.152;2023-04-25T03:26:30;5;5;
79537;PMS5003;68989;52.032;5.152;2023-04-25T03:28:57;11;9;
79537;PMS5003;68989;52.032;5.152;2023-04-25T03:31:24;5;5;
79537;PMS5003;68989;52.032;5.152;2023-04-25T03:33:51;6;6;
79537;PMS5003;68989;52.032;5.152;2023-04-25T03:36:18;6;6;
79537;PMS5003;68989;52.032;5.152;2023-04-25T03:38:45;7;7;
79537;PMS5003;68989;52.032;5.152;2023-04-25T03:41:12;7;6;
79537;PMS5003;68989;52.032;5.152;2023-04-25T03:43:39;4;4;
79537;PMS5003;68989;52.032;5.152;2023-04-25T03:46:07;7;6;
79537;PMS5003;68989;52.032;5.152;2023-04-25T03:48:34;5;5;
79537;PMS5003;68989;52.032;5.152;2023-04-25T03:51:01;4;4;
79537;PMS5003;68989;52.032;5.152;2023-04-25T03:53:28;7;6;
79537;PMS5003;68989;52.032;5.152;2023-04-25T03:55:55;4;4;
79537;PMS5003;68989;52.032;5.152;2023-04-25T03:58:22;5;5;
79537;PMS5003;68989;52.032;5.152;2023-04-25T04:00:49;3;3;
79537;PMS5003;68989;52.032;5.152;2023-04-25T04:03:16;6;4;
79537;PMS5003;68989;52.032;5.152;2023-04-25T04:05:43;8;8;
79537;PMS5003;68989;52.032;5.152;2023-04-25T04:08:10;5;3;
79537;PMS5003;68989;52.032;5.152;2023-04-25T04:10:37;4;4;
79537;PMS5003;68989;52.032;5.152;2023-04-25T04:13:04;4;3;
79537;PMS5003;68989;52.032;5.152;2023-04-25T04:15:31;4;3;
79537;PMS5003;68989;52.032;5.152;2023-04-25T04:17:58;4;4;
79537;PMS5003;68989;52.032;5.152;2023-04-25T04:20:25;3;3;
79537;PMS5003;68989;52.032;5.152;2023-04-25T04:22:52;6;5;
79537;PMS5003;68989;52.032;5.152;2023-04-25T04:25:19;4;4;
79537;PMS5003;68989;52.032;5.152;2023-04-25T04:27:46;3;3;
79537;PMS5003;68989;52.032;5.152;2023-04-25T04:30:13;6;4;
79537;PMS5003;68989;52.032;5.152;2023-04-25T04:32:40;4;4;
79537;PMS5003;68989;52.032;5.152;2023-04-25T04:35:08;3;3;
79537;PMS5003;68989;52.032;5.152;2023-04-25T04:37:35;5;5;
79537;PMS5003;68989;52.032;5.152;2023-04-25T04:40:02;5;4;
79537;PMS5003;68989;52.032;5.152;2023-04-25T04:42:30;4;3;
79537;PMS5003;68989;52.032;5.152;2023-04-25T04:44:57;4;4;
79537;PMS5003;68989;52.032;5.152;2023-04-25T04:47:24;4;4;
79537;PMS5003;68989;52.032;5.152;2023-04-25T04:49:51;2;2;
79537;PMS5003;68989;52.032;5.152;2023-04-25T04:52:18;7;6;
79537;PMS5003;68989;52.032;5.152;2023-04-25T04:54:45;4;4;
79537;PMS5003;68989;52.032;5.152;2023-04-25T04:57:12;4;4;
79537;PMS5003;68989;52.032;5.152;2023-04-25T04:59:38;4;4;
79537;PMS5003;68989;52.032;5.152;2023-04-25T05:02:05;9;6;
79537;PMS5003;68989;52.032;5.152;2023-04-25T05:04:32;5;4;
79537;PMS5003;68989;52.032;5.152;2023-04-25T05:06:59;7;5;
79537;PMS5003;68989;52.032;5.152;2023-04-25T05:09:26;4;4;
79537;PMS5003;68989;52.032;5.152;2023-04-25T05:11:53;4;4;
79537;PMS5003;68989;52.032;5.152;2023-04-25T05:14:20;3;3;
79537;PMS5003;68989;52.032;5.152;2023-04-25T05:16:47;3;3;
79537;PMS5003;68989;52.032;5.152;2023-04-25T05:19:14;4;4;
79537;PMS5003;68989;52.032;5.152;2023-04-25T05:21:41;3;3;
79537;PMS5003;68989;52.032;5.152;2023-04-25T05:24:08;4;4;
79537;PMS5003;68989;52.032;5.152;2023-04-25T05:26:35;3;3;
79537;PMS5003;68989;52.032;5.152;2023-04-25T05:29:02;3;3;
79537;PMS5003;68989;52.032;5.152;2023-04-25T05:31:28;5;4;
79537;PMS5003;68989;52.032;5.152;2023-04-25T05:33:55;3;3;
79537;PMS5003;68989;52.032;5.152;2023-04-25T05:36:22;6;5;
79537;PMS5003;68989;52.032;5.152;2023-04-25T05:38:49;6;3;
79537;PMS5003;68989;52.032;5.152;2023-04-25T05:41:16;4;4;
79537;PMS5003;68989;52.032;5.152;2023-04-25T05:43:43;5;4;
79537;PMS5003;68989;52.032;5.152;2023-04-25T05:46:10;6;4;
79537;PMS5003;68989;52.032;5.152;2023-04-25T05:48:37;4;3;
79537;PMS5003;68989;52.032;5.152;2023-04-25T05:51:04;4;3;
79537;PMS5003;68989;52.032;5.152;2023-04-25T05:53:31;4;4;
79537;PMS5003;68989;52.032;5.152;2023-04-25T05:55:58;4;4;
79537;PMS5003;68989;52.032;5.152;2023-04-25T05:58:25;3;2;
79537;PMS5003;68989;52.032;5.152;2023-04-25T06:00:52;3;3;
79537;PMS5003;68989;52.032;5.152;2023-04-25T06:03:18;5;5;
79537;PMS5003;68989;52.032;5.152;2023-04-25T06:05:45;3;3;
79537;PMS5003;68989;52.032;5.152;2023-04-25T06:08:12;3;3;
79537;PMS5003;68989;52.032;5.152;2023-04-25T06:10:39;4;4;
79537;PMS5003;68989;52.032;5.152;2023-04-25T06:13:06;3;3;
79537;PMS5003;68989;52.032;5.152;2023-04-25T06:15:33;4;4;
79537;PMS5003;68989;52.032;5.152;2023-04-25T06:18:00;3;3;
79537;PMS5003;68989;52.032;5.152;2023-04-25T06:20:27;6;4;
79537;PMS5003;68989;52.032;5.152;2023-04-25T06:22:54;5;5;
79537;PMS5003;68989;52.032;5.152;2023-04-25T06:25:21;3;3;
79537;PMS5003;68989;52.032;5.152;2023-04-25T06:27:48;3;3;
79537;PMS5003;68989;52.032;5.152;2023-04-25T06:30:15;3;3;
79537;PMS5003;68989;52.032;5.152;2023-04-25T06:32:42;5;3;
79537;PMS5003;68989;52.032;5.152;2023-04-25T06:35:09;4;4;
79537;PMS5003;68989;52.032;5.152;2023-04-25T06:37:36;3;3;
79537;PMS5003;68989;52.032;5.152;2023-04-25T06:40:03;2;2;
79537;PMS5003;68989;52.032;5.152;2023-04-25T06:42:32;2;2;
79537;PMS5003;68989;52.032;5.152;2023-04-25T06:44:58;6;5;
79537;PMS5003;68989;52.032;5.152;2023-04-25T06:47:25;5;3;
79537;PMS5003;68989;52.032;5.152;2023-04-25T06:49:52;5;4;
79537;PMS5003;68989;52.032;5.152;2023-04-25T06:52:19;3;3;
79537;PMS5003;68989;52.032;5.152;2023-04-25T06:54:46;2;2;
79537;PMS5003;68989;52.032;5.152;2023-04-25T06:57:13;3;3;
79537;PMS5003;68989;52.032;5.152;2023-04-25T06:59:40;3;2;
79537;PMS5003;68989;52.032;5.152;2023-04-25T07:02:08;7;4;
79537;PMS5003;68989;52.032;5.152;2023-04-25T07:04:35;2;2;
79537;PMS5003;68989;52.032;5.152;2023-04-25T07:07:02;4;4;
79537;PMS5003;68989;52.032;5.152;2023-04-25T07:09:29;3;3;
79537;PMS5003;68989;52.032;5.152;2023-04-25T07:11:56;5;4;
79537;PMS5003;68989;52.032;5.152;2023-04-25T07:14:24;3;3;
79537;PMS5003;68989;52.032;5.152;2023-04-25T07:16:51;5;5;
79537;PMS5003;68989;52.032;5.152;2023-04-25T07:19:18;2;2;
79537;PMS5003;68989;52.032;5.152;2023-04-25T07:21:45;8;3;
79537;PMS5003;68989;52.032;5.152;2023-04-25T07:24:12;3;3;
79537;PMS5003;68989;52.032;5.152;2023-04-25T07:26:38;6;3;
79537;PMS5003;68989;52.032;5.152;2023-04-25T07:29:06;6;4;
79537;PMS5003;68989;52.032;5.152;2023-04-25T07:31:33;4;2;
79537;PMS5003;68989;52.032;5.152;2023-04-25T07:34:00;2;2;
79537;PMS5003;68989;52.032;5.152;2023-04-25T07:36:26;3;3;
79537;PMS5003;68989;52.032;5.152;2023-04-25T07:38:53;3;3;
79537;PMS5003;68989;52.032;5.152;2023-04-25T07:41:20;5;3;
79537;PMS5003;68989;52.032;5.152;2023-04-25T07:43:47;5;5;
79537;PMS5003;68989;52.032;5.152;2023-04-25T07:46:14;5;3;
79537;PMS5003;68989;52.032;5.152;2023-04-25T07:48:41;4;2;
79537;PMS5003;68989;52.032;5.152;2023-04-25T07:51:09;8;4;
79537;PMS5003;68989;52.032;5.152;2023-04-25T07:53:36;2;2;
79537;PMS5003;68989;52.032;5.152;2023-04-25T07:56:03;4;4;
79537;PMS5003;68989;52.032;5.152;2023-04-25T07:58:31;3;2;
79537;PMS5003;68989;52.032;5.152;2023-04-25T08:00:57;2;2;
79537;PMS5003;68989;52.032;5.152;2023-04-25T08:03:24;2;2;
79537;PMS5003;68989;52.032;5.152;2023-04-25T08:05:51;3;2;
79537;PMS5003;68989;52.032;5.152;2023-04-25T08:08:18;2;2;
79537;PMS5003;68989;52.032;5.152;2023-04-25T08:10:45;3;2;
79537;PMS5003;68989;52.032;5.152;2023-04-25T08:13:12;1;1;
79537;PMS5003;68989;52.032;5.152;2023-04-25T08:15:39;3;3;
79537;PMS5003;68989;52.032;5.152;2023-04-25T08:18:06;3;2;
79537;PMS5003;68989;52.032;5.152;2023-04-25T08:20:33;1;1;
79537;PMS5003;68989;52.032;5.152;2023-04-25T08:23:00;3;1;
79537;PMS5003;68989;52.032;5.152;2023-04-25T08:25:27;1;1;
79537;PMS5003;68989;52.032;5.152;2023-04-25T08:27:53;2;2;
79537;PMS5003;68989;52.032;5.152;2023-04-25T08:30:20;1;1;
79537;PMS5003;68989;52.032;5.152;2023-04-25T08:32:47;3;3;
79537;PMS5003;68989;52.032;5.152;2023-04-25T08:35:14;6;3;
79537;PMS5003;68989;52.032;5.152;2023-04-25T08:37:41;4;4;
79537;PMS5003;68989;52.032;5.152;2023-04-25T08:40:09;3;3;
79537;PMS5003;68989;52.032;5.152;2023-04-25T08:42:39;2;1;
79537;PMS5003;68989;52.032;5.152;2023-04-25T08:45:07;1;1;
79537;PMS5003;68989;52.032;5.152;2023-04-25T08:47:35;3;3;
79537;PMS5003;68989;52.032;5.152;2023-04-25T08:50:05;2;2;
79537;PMS5003;68989;52.032;5.152;2023-04-25T08:52:35;2;2;
79537;PMS5003;68989;52.032;5.152;2023-04-25T08:55:03;2;2;
79537;PMS5003;68989;52.032;5.152;2023-04-25T08:57:32;1;1;
79537;PMS5003;68989;52.032;5.152;2023-04-25T09:00:00;2;2;
79537;PMS5003;68989;52.032;5.152;2023-04-25T09:02:28;3;3;
79537;PMS5003;68989;52.032;5.152;2023-04-25T09:04:55;2;2;
79537;PMS5003;68989;52.032;5.152;2023-04-25T09:07:23;1;1;
79537;PMS5003;68989;52.032;5.152;2023-04-25T09:09:50;2;2;
79537;PMS5003;68989;52.032;5.152;2023-04-25T09:12:17;2;2;
79537;PMS5003;68989;52.032;5.152;2023-04-25T09:14:49;7;4;
79537;PMS5003;68989;52.032;5.152;2023-04-25T09:17:29;3;3;
79537;PMS5003;68989;52.032;5.152;2023-04-25T09:19:56;3;2;
79537;PMS5003;68989;52.032;5.152;2023-04-25T09:22:33;3;3;
79537;PMS5003;68989;52.032;5.152;2023-04-25T09:25:02;2;2;
79537;PMS5003;68989;52.032;5.152;2023-04-25T09:27:30;3;2;
79537;PMS5003;68989;52.032;5.152;2023-04-25T09:29:57;3;2;
79537;PMS5003;68989;52.032;5.152;2023-04-25T09:32:25;3;1;
79537;PMS5003;68989;52.032;5.152;2023-04-25T09:34:53;2;2;
79537;PMS5003;68989;52.032;5.152;2023-04-25T09:37:22;2;1;
79537;PMS5003;68989;52.032;5.152;2023-04-25T09:39:51;2;2;
79537;PMS5003;68989;52.032;5.152;2023-04-25T09:42:21;4;3;
79537;PMS5003;68989;52.032;5.152;2023-04-25T09:44:49;2;1;
79537;PMS5003;68989;52.032;5.152;2023-04-25T09:47:19;5;2;
79537;PMS5003;68989;52.032;5.152;2023-04-25T09:49:46;4;2;
79537;PMS5003;68989;52.032;5.152;2023-04-25T09:52:14;0;0;
79537;PMS5003;68989;52.032;5.152;2023-04-25T09:54:42;1;1;
79537;PMS5003;68989;52.032;5.152;2023-04-25T09:57:10;2;2;
79537;PMS5003;68989;52.032;5.152;2023-04-25T09:59:39;1;1;
79537;PMS5003;68989;52.032;5.152;2023-04-25T10:02:10;3;2;
79537;PMS5003;68989;52.032;5.152;2023-04-25T10:04:39;0;0;
79537;PMS5003;68989;52.032;5.152;2023-04-25T10:07:07;1;1;
79537;PMS5003;68989;52.032;5.152;2023-04-25T10:09:36;0;0;
79537;PMS5003;68989;52.032;5.152;2023-04-25T10:12:04;1;1;
79537;PMS5003;68989;52.032;5.152;2023-04-25T10:14:32;2;1;
79537;PMS5003;68989;52.032;5.152;2023-04-25T10:16:59;2;0;
79537;PMS5003;68989;52.032;5.152;2023-04-25T10:19:27;1;1;
79537;PMS5003;68989;52.032;5.152;2023-04-25T10:21:56;0;0;
79537;PMS5003;68989;52.032;5.152;2023-04-25T10:24:29;3;1;
79537;PMS5003;68989;52.032;5.152;2023-04-25T10:26:56;1;1;
79537;PMS5003;68989;52.032;5.152;2023-04-25T10:29:25;1;0;
79537;PMS5003;68989;52.032;5.152;2023-04-25T10:31:52;3;1;
79537;PMS5003;68989;52.032;5.152;2023-04-25T10:34:19;1;1;
79537;PMS5003;68989;52.032;5.152;2023-04-25T10:36:52;0;0;
79537;PMS5003;68989;52.032;5.152;2023-04-25T10:39:23;2;2;
79537;PMS5003;68989;52.032;5.152;2023-04-25T10:41:53;1;1;
79537;PMS5003;68989;52.032;5.152;2023-04-25T10:44:22;1;1;
79537;PMS5003;68989;52.032;5.152;2023-04-25T10:46:54;1;1;
79537;PMS5003;68989;52.032;5.152;2023-04-25T10:49:30;2;2;
79537;PMS5003;68989;52.032;5.152;2023-04-25T10:52:32;1;1;
79537;PMS5003;68989;52.032;5.152;2023-04-25T10:54:59;3;1;
79537;PMS5003;68989;52.032;5.152;2023-04-25T10:57:32;2;2;
79537;PMS5003;68989;52.032;5.152;2023-04-25T11:00:07;4;2;
79537;PMS5003;68989;52.032;5.152;2023-04-25T11:02:38;2;2;
79537;PMS5003;68989;52.032;5.152;2023-04-25T11:05:08;5;2;
79537;PMS5003;68989;52.032;5.152;2023-04-25T11:07:37;3;1;
79537;PMS5003;68989;52.032;5.152;2023-04-25T11:10:11;2;2;
79537;PMS5003;68989;52.032;5.152;2023-04-25T11:12:37;1;1;
79537;PMS5003;68989;52.032;5.152;2023-04-25T11:15:05;1;1;
79537;PMS5003;68989;52.032;5.152;2023-04-25T11:17:33;2;2;
79537;PMS5003;68989;52.032;5.152;2023-04-25T11:20:01;1;1;
79537;PMS5003;68989;52.032;5.152;2023-04-25T11:22:28;3;1;
79537;PMS5003;68989;52.032;5.152;2023-04-25T11:24:55;2;2;
79537;PMS5003;68989;52.032;5.152;2023-04-25T11:27:23;4;3;
79537;PMS5003;68989;52.032;5.152;2023-04-25T11:29:49;3;2;
79537;PMS5003;68989;52.032;5.152;2023-04-25T11:32:17;1;1;
79537;PMS5003;68989;52.032;5.152;2023-04-25T11:34:44;2;1;
79537;PMS5003;68989;52.032;5.152;2023-04-25T11:37:11;3;2;
79537;PMS5003;68989;52.032;5.152;2023-04-25T11:39:37;0;0;
79537;PMS5003;68989;52.032;5.152;2023-04-25T11:42:04;2;2;
79537;PMS5003;68989;52.032;5.152;2023-04-25T11:44:31;2;1;
79537;PMS5003;68989;52.032;5.152;2023-04-25T11:46:58;0;0;
79537;PMS5003;68989;52.032;5.152;2023-04-25T11:49:24;1;0;
79537;PMS5003;68989;52.032;5.152;2023-04-25T11:51:57;1;1;
79537;PMS5003;68989;52.032;5.152;2023-04-25T11:54:23;3;1;
79537;PMS5003;68989;52.032;5.152;2023-04-25T11:56:50;1;1;
79537;PMS5003;68989;52.032;5.152;2023-04-25T11:59:17;3;1;
79537;PMS5003;68989;52.032;5.152;2023-04-25T12:01:50;1;1;
79537;PMS5003;68989;52.032;5.152;2023-04-25T12:04:17;1;1;
79537;PMS5003;68989;52.032;5.152;2023-04-25T12:06:46;1;1;
79537;PMS5003;68989;52.032;5.152;2023-04-25T12:09:14;1;1;
79537;PMS5003;68989;52.032;5.152;2023-04-25T12:11:43;2;0;
79537;PMS5003;68989;52.032;5.152;2023-04-25T12:14:11;1;1;
79537;PMS5003;68989;52.032;5.152;2023-04-25T12:16:46;3;3;
79537;PMS5003;68989;52.032;5.152;2023-04-25T12:19:15;2;2;
79537;PMS5003;68989;52.032;5.152;2023-04-25T12:21:43;3;2;
79537;PMS5003;68989;52.032;5.152;2023-04-25T12:24:10;2;2;
79537;PMS5003;68989;52.032;5.152;2023-04-25T12:26:46;2;2;
79537;PMS5003;68989;52.032;5.152;2023-04-25T12:29:17;3;2;
79537;PMS5003;68989;52.032;5.152;2023-04-25T12:31:44;2;2;
79537;PMS5003;68989;52.032;5.152;2023-04-25T12:34:12;4;2;
79537;PMS5003;68989;52.032;5.152;2023-04-25T12:36:39;2;1;
79537;PMS5003;68989;52.032;5.152;2023-04-25T12:39:06;2;2;
79537;PMS5003;68989;52.032;5.152;2023-04-25T12:41:33;3;2;
79537;PMS5003;68989;52.032;5.152;2023-04-25T12:44:01;5;4;
79537;PMS5003;68989;52.032;5.152;2023-04-25T12:46:28;1;1;
79537;PMS5003;68989;52.032;5.152;2023-04-25T12:48:54;2;2;
79537;PMS5003;68989;52.032;5.152;2023-04-25T12:51:21;0;0;
79537;PMS5003;68989;52.032;5.152;2023-04-25T12:53:48;3;3;
79537;PMS5003;68989;52.032;5.152;2023-04-25T12:56:15;1;1;
79537;PMS5003;68989;52.032;5.152;2023-04-25T12:58:42;2;2;
79537;PMS5003;68989;52.032;5.152;2023-04-25T13:01:09;3;3;
79537;PMS5003;68989;52.032;5.152;2023-04-25T13:03:35;3;3;
79537;PMS5003;68989;52.032;5.152;2023-04-25T13:06:02;2;2;
79537;PMS5003;68989;52.032;5.152;2023-04-25T13:08:30;3;3;
79537;PMS5003;68989;52.032;5.152;2023-04-25T13:10:57;2;2;
79537;PMS5003;68989;52.032;5.152;2023-04-25T13:13:23;3;3;
79537;PMS5003;68989;52.032;5.152;2023-04-25T13:15:50;2;2;
79537;PMS5003;68989;52.032;5.152;2023-04-25T13:18:17;2;2;
79537;PMS5003;68989;52.032;5.152;2023-04-25T13:20:45;1;1;
79537;PMS5003;68989;52.032;5.152;2023-04-25T13:23:11;3;2;
79537;PMS5003;68989;52.032;5.152;2023-04-25T13:25:38;1;1;
79537;PMS5003;68989;52.032;5.152;2023-04-25T13:28:05;1;1;
79537;PMS5003;68989;52.032;5.152;2023-04-25T13:30:32;0;0;
79537;PMS5003;68989;52.032;5.152;2023-04-25T13:32:59;2;1;
79537;PMS5003;68989;52.032;5.152;2023-04-25T13:35:25;1;0;
79537;PMS5003;68989;52.032;5.152;2023-04-25T13:37:52;2;0;
79537;PMS5003;68989;52.032;5.152;2023-04-25T13:40:19;0;0;
79537;PMS5003;68989;52.032;5.152;2023-04-25T13:42:46;1;1;
79537;PMS5003;68989;52.032;5.152;2023-04-25T13:45:12;1;1;
79537;PMS5003;68989;52.032;5.152;2023-04-25T13:47:39;2;2;
79537;PMS5003;68989;52.032;5.152;2023-04-25T13:50:06;1;1;
79537;PMS5003;68989;52.032;5.152;2023-04-25T13:52:34;4;0;
79537;PMS5003;68989;52.032;5.152;2023-04-25T13:55:00;2;2;
79537;PMS5003;68989;52.032;5.152;2023-04-25T13:57:27;4;3;
79537;PMS5003;68989;52.032;5.152;2023-04-25T13:59:54;4;1;
79537;PMS5003;68989;52.032;5.152;2023-04-25T14:02:21;4;2;
79537;PMS5003;68989;52.032;5.152;2023-04-25T14:04:47;2;2;
79537;PMS5003;68989;52.032;5.152;2023-04-25T14:07:14;1;1;
79537;PMS5003;68989;52.032;5.152;2023-04-25T14:09:41;3;3;
79537;PMS5003;68989;52.032;5.152;2023-04-25T14:12:09;2;2;
79537;PMS5003;68989;52.032;5.152;2023-04-25T14:14:35;2;2;
79537;PMS5003;68989;52.032;5.152;2023-04-25T14:17:02;3;2;
79537;PMS5003;68989;52.032;5.152;2023-04-25T14:19:30;1;1;
79537;PMS5003;68989;52.032;5.152;2023-04-25T14:21:56;4;3;
79537;PMS5003;68989;52.032;5.152;2023-04-25T14:24:24;4;3;
79537;PMS5003;68989;52.032;5.152;2023-04-25T14:26:51;4;3;
79537;PMS5003;68989;52.032;5.152;2023-04-25T14:29:18;1;1;
79537;PMS5003;68989;52.032;5.152;2023-04-25T14:31:44;1;1;
79537;PMS5003;68989;52.032;5.152;2023-04-25T14:34:11;2;2;
79537;PMS5003;68989;52.032;5.152;2023-04-25T14:36:38;3;3;
79537;PMS5003;68989;52.032;5.152;2023-04-25T14:39:05;2;2;
79537;PMS5003;68989;52.032;5.152;2023-04-25T14:41:32;3;3;
79537;PMS5003;68989;52.032;5.152;2023-04-25T14:43:58;3;2;
79537;PMS5003;68989;52.032;5.152;2023-04-25T14:46:25;1;1;
79537;PMS5003;68989;52.032;5.152;2023-04-25T14:48:53;3;3;
79537;PMS5003;68989;52.032;5.152;2023-04-25T14:51:19;2;2;
79537;PMS5003;68989;52.032;5.152;2023-04-25T14:53:46;2;2;
79537;PMS5003;68989;52.032;5.152;2023-04-25T14:56:13;3;3;
79537;PMS5003;68989;52.032;5.152;2023-04-25T14:58:40;3;2;
79537;PMS5003;68989;52.032;5.152;2023-04-25T15:01:07;2;2;
79537;PMS5003;68989;52.032;5.152;2023-04-25T15:03:33;4;2;
79537;PMS5003;68989;52.032;5.152;2023-04-25T15:06:00;2;2;
79537;PMS5003;68989;52.032;5.152;2023-04-25T15:08:27;3;2;
79537;PMS5003;68989;52.032;5.152;2023-04-25T15:10:54;4;3;
79537;PMS5003;68989;52.032;5.152;2023-04-25T15:13:21;3;3;
79537;PMS5003;68989;52.032;5.152;2023-04-25T15:15:47;1;1;
79537;PMS5003;68989;52.032;5.152;2023-04-25T15:18:15;2;2;
79537;PMS5003;68989;52.032;5.152;2023-04-25T15:20:42;3;3;
79537;PMS5003;68989;52.032;5.152;2023-04-25T15:23:08;2;2;
79537;PMS5003;68989;52.032;5.152;2023-04-25T15:25:35;3;3;
79537;PMS5003;68989;52.032;5.152;2023-04-25T15:28:02;3;3;
79537;PMS5003;68989;52.032;5.152;2023-04-25T15:30:29;5;4;
79537;PMS5003;68989;52.032;5.152;2023-04-25T15:32:56;2;2;
79537;PMS5003;68989;52.032;5.152;2023-04-25T15:35:23;1;1;
79537;PMS5003;68989;52.032;5.152;2023-04-25T15:37:50;3;3;
79537;PMS5003;68989;52.032;5.152;2023-04-25T15:40:17;4;4;
79537;PMS5003;68989;52.032;5.152;2023-04-25T15:42:44;2;2;
79537;PMS5003;68989;52.032;5.152;2023-04-25T15:45:13;3;3;
79537;PMS5003;68989;52.032;5.152;2023-04-25T15:47:41;4;4;
79537;PMS5003;68989;52.032;5.152;2023-04-25T15:50:08;4;3;
79537;PMS5003;68989;52.032;5.152;2023-04-25T15:52:37;5;4;
79537;PMS5003;68989;52.032;5.152;2023-04-25T15:55:05;3;2;
79537;PMS5003;68989;52.032;5.152;2023-04-25T15:57:33;4;4;
79537;PMS5003;68989;52.032;5.152;2023-04-25T16:00:01;4;4;
79537;PMS5003;68989;52.032;5.152;2023-04-25T16:02:29;3;3;
79537;PMS5003;68989;52.032;5.152;2023-04-25T16:04:56;3;3;
79537;PMS5003;68989;52.032;5.152;2023-04-25T16:07:23;3;3;
79537;PMS5003;68989;52.032;5.152;2023-04-25T16:09:50;2;2;
79537;PMS5003;68989;52.032;5.152;2023-04-25T16:12:16;3;3;
79537;PMS5003;68989;52.032;5.152;2023-04-25T16:14:43;3;3;
79537;PMS5003;68989;52.032;5.152;2023-04-25T16:17:11;3;2;
79537;PMS5003;68989;52.032;5.152;2023-04-25T16:19:39;4;4;
79537;PMS5003;68989;52.032;5.152;2023-04-25T16:22:06;6;4;
79537;PMS5003;68989;52.032;5.152;2023-04-25T16:24:33;3;3;
79537;PMS5003;68989;52.032;5.152;2023-04-25T16:27:00;5;2;
79537;PMS5003;68989;52.032;5.152;2023-04-25T16:29:27;4;3;
79537;PMS5003;68989;52.032;5.152;2023-04-25T16:31:53;2;1;
79537;PMS5003;68989;52.032;5.152;2023-04-25T16:34:21;3;3;
79537;PMS5003;68989;52.032;5.152;2023-04-25T16:36:48;2;2;
79537;PMS5003;68989;52.032;5.152;2023-04-25T16:39:15;3;3;
79537;PMS5003;68989;52.032;5.152;2023-04-25T16:41:42;1;1;
79537;PMS5003;68989;52.032;5.152;2023-04-25T16:44:09;3;3;
79537;PMS5003;68989;52.032;5.152;2023-04-25T16:46:36;3;3;
79537;PMS5003;68989;52.032;5.152;2023-04-25T16:49:03;1;1;
79537;PMS5003;68989;52.032;5.152;2023-04-25T16:51:29;3;3;
79537;PMS5003;68989;52.032;5.152;2023-04-25T16:53:56;2;2;